createdAt,value
2023-02-28T00:01:28.351Z,-0.79
2023-02-28T00:03:58.031Z,-0.88
2023-02-28T00:06:26.268Z,-0.99
2023-02-28T00:08:54.231Z,-0.88
2023-02-28T00:11:23.694Z,-0.74
2023-02-28T00:13:51.904Z,-0.74
2023-02-28T00:16:21.374Z,-0.72
2023-02-28T00:18:49.650Z,-0.72
2023-02-28T00:21:19.945Z,-0.79
2023-02-28T00:23:48.281Z,-0.89
2023-02-28T00:26:16.682Z,-0.75
2023-02-28T00:28:47.057Z,-0.78
2023-02-28T00:31:15.025Z,-0.84
2023-02-28T00:33:42.946Z,-0.88
2023-02-28T00:36:13.193Z,-0.89
2023-02-28T00:38:43.462Z,-0.88
2023-02-28T00:41:11.609Z,-0.85
2023-02-28T00:43:40.840Z,-0.82
2023-02-28T00:46:09.801Z,-0.82
2023-02-28T00:48:38.706Z,-0.81
2023-02-28T00:51:07.005Z,-0.88
2023-02-28T00:53:34.963Z,-0.92
2023-02-28T00:56:05.326Z,-1.00
2023-02-28T00:58:33.187Z,-1.06
2023-02-28T01:01:01.135Z,-1.09
2023-02-28T01:03:29.010Z,-1.02
2023-02-28T01:05:56.911Z,-0.89
2023-02-28T01:08:24.845Z,-0.75
2023-02-28T01:10:56.077Z,-0.72
2023-02-28T01:13:26.412Z,-0.88
2023-02-28T01:15:57.201Z,-0.92
2023-02-28T01:18:26.563Z,-0.86
2023-02-28T01:20:54.986Z,-0.86
2023-02-28T01:23:24.750Z,-0.93
2023-02-28T01:25:52.839Z,-1.03
2023-02-28T01:28:21.059Z,-1.32
2023-02-28T01:30:53.508Z,-1.44
2023-02-28T01:33:21.790Z,-1.36
2023-02-28T01:35:49.875Z,-1.42
2023-02-28T01:38:22.666Z,-1.50
2023-02-28T01:40:51.732Z,-1.56
2023-02-28T01:43:25.111Z,-1.67
2023-02-28T01:45:55.511Z,-1.47
2023-02-28T01:48:27.132Z,-1.54
2023-02-28T01:51:00.856Z,-1.54
2023-02-28T01:53:34.169Z,-1.58
2023-02-28T01:56:02.496Z,-1.77
2023-02-28T01:58:30.429Z,-1.71
2023-02-28T02:00:59.629Z,-1.60
2023-02-28T02:03:28.075Z,-1.70
2023-02-28T02:05:55.951Z,-1.60
2023-02-28T02:08:28.618Z,-1.54
2023-02-28T02:10:58.834Z,-1.56
2023-02-28T02:13:46.709Z,-1.63
2023-02-28T02:16:30.357Z,-1.71
2023-02-28T02:19:13.692Z,-1.77
2023-02-28T02:22:15.111Z,-1.75
2023-02-28T02:25:18.587Z,-1.84
2023-02-28T02:28:29.555Z,-1.67
2023-02-28T02:31:43.233Z,-1.79
2023-02-28T02:34:25.006Z,-1.84
2023-02-28T02:36:58.634Z,-1.87
2023-02-28T02:39:33.590Z,-1.81
2023-02-28T02:42:04.196Z,-1.89
2023-02-28T02:44:43.928Z,-1.97
2023-02-28T02:47:14.554Z,-1.95
2023-02-28T02:49:48.091Z,-2.06
2023-02-28T02:52:20.433Z,-2.09
2023-02-28T02:54:50.502Z,-2.22
2023-02-28T02:57:29.522Z,-2.12
2023-02-28T02:59:59.133Z,-2.18
2023-02-28T03:02:29.217Z,-2.18
2023-02-28T03:05:03.245Z,-2.12
2023-02-28T03:07:31.202Z,-2.22
2023-02-28T03:09:59.721Z,-2.25
2023-02-28T03:12:36.090Z,-2.28
2023-02-28T03:15:14.383Z,-2.21
2023-02-28T03:18:03.871Z,-2.32
2023-02-28T03:20:47.047Z,-2.15
2023-02-28T03:23:18.999Z,-2.08
2023-02-28T03:25:58.682Z,-1.92
2023-02-28T03:28:38.046Z,-2.06
2023-02-28T03:31:10.076Z,-1.99
2023-02-28T03:33:44.576Z,-1.97
2023-02-28T03:36:18.161Z,-1.94
2023-02-28T03:38:50.785Z,-1.85
2023-02-28T03:41:23.435Z,-1.89
2023-02-28T03:43:55.809Z,-1.88
2023-02-28T03:46:27.099Z,-1.92
2023-02-28T03:49:00.126Z,-1.94
2023-02-28T03:51:31.188Z,-1.85
2023-02-28T03:54:01.953Z,-1.78
2023-02-28T03:56:34.723Z,-1.78
2023-02-28T03:59:07.236Z,-1.60
2023-02-28T04:01:40.123Z,-1.58
2023-02-28T04:04:08.023Z,-1.71
2023-02-28T04:06:37.832Z,-1.78
2023-02-28T04:09:06.760Z,-1.94
2023-02-28T04:11:37.338Z,-2.12
2023-02-28T04:14:06.107Z,-2.35
2023-02-28T04:16:36.151Z,-2.48
2023-02-28T04:19:05.896Z,-2.59
2023-02-28T04:21:35.584Z,-2.74
2023-02-28T04:24:05.640Z,-2.81
2023-02-28T04:26:33.562Z,-2.87
2023-02-28T04:29:02.473Z,-3.04
2023-02-28T04:31:30.675Z,-3.04
2023-02-28T04:33:59.273Z,-3.01
2023-02-28T04:36:27.411Z,-2.92
2023-02-28T04:38:55.583Z,-2.98
2023-02-28T04:41:25.192Z,-3.05
2023-02-28T04:43:53.708Z,-3.01
2023-02-28T04:46:22.056Z,-2.90
2023-02-28T04:48:50.249Z,-2.80
2023-02-28T04:51:20.174Z,-2.67
2023-02-28T04:53:48.710Z,-2.50
2023-02-28T04:56:19.058Z,-2.36
2023-02-28T04:58:48.572Z,-2.39
2023-02-28T05:01:22.871Z,-2.33
2023-02-28T05:03:51.972Z,-2.40
2023-02-28T05:06:21.278Z,-2.48
2023-02-28T05:08:48.985Z,-2.57
2023-02-28T05:11:20.729Z,-2.56
2023-02-28T05:13:50.553Z,-2.57
2023-02-28T05:16:18.712Z,-2.77
2023-02-28T05:18:46.962Z,-2.90
2023-02-28T05:21:26.253Z,-2.85
2023-02-28T05:23:54.634Z,-2.85
2023-02-28T05:26:23.080Z,-2.63
2023-02-28T05:28:52.324Z,-2.56
2023-02-28T05:31:20.688Z,-2.50
2023-02-28T05:33:48.809Z,-2.33
2023-02-28T05:36:16.840Z,-2.18
2023-02-28T05:38:44.723Z,-2.13
2023-02-28T05:41:13.067Z,-2.21
2023-02-28T05:43:40.917Z,-2.22
2023-02-28T05:46:12.918Z,-2.21
2023-02-28T05:48:42.496Z,-2.38
2023-02-28T05:51:11.047Z,-2.45
2023-02-28T05:53:38.978Z,-2.52
2023-02-28T05:56:07.169Z,-2.63
2023-02-28T05:58:35.669Z,-2.73
2023-02-28T06:01:24.155Z,-2.79
2023-02-28T06:03:52.101Z,-2.88
2023-02-28T06:06:19.959Z,-2.87
2023-02-28T06:08:47.904Z,-2.90
2023-02-28T06:11:15.807Z,-2.97
2023-02-28T06:13:43.756Z,-2.98
2023-02-28T06:16:13.217Z,-3.05
2023-02-28T06:18:42.643Z,-3.00
2023-02-28T06:21:10.496Z,-2.88
2023-02-28T06:23:38.429Z,-2.66
2023-02-28T06:26:06.871Z,-2.76
2023-02-28T06:28:34.752Z,-2.81
2023-02-28T06:31:08.538Z,-2.60
2023-02-28T06:33:36.753Z,-2.46
2023-02-28T06:36:07.197Z,-2.40
2023-02-28T06:38:35.787Z,-2.29
2023-02-28T06:41:04.050Z,-2.06
2023-02-28T06:43:34.661Z,-1.72
2023-02-28T06:46:05.020Z,-1.40
2023-02-28T06:48:35.011Z,-0.95
2023-02-28T06:51:06.865Z,-0.38
2023-02-28T06:53:35.145Z,0.13
2023-02-28T06:56:07.333Z,-0.03
2023-02-28T06:58:35.560Z,0.15
2023-02-28T07:01:04.171Z,0.19
2023-02-28T07:03:34.292Z,0.21
2023-02-28T07:06:02.786Z,0.47
2023-02-28T07:08:32.733Z,1.37
2023-02-28T07:11:00.942Z,2.16
2023-02-28T07:13:28.877Z,2.93
2023-02-28T07:15:57.960Z,3.65
2023-02-28T07:18:26.477Z,3.89
2023-02-28T07:20:54.825Z,3.80
2023-02-28T07:23:23.541Z,4.80
2023-02-28T07:25:53.324Z,5.26
2023-02-28T07:28:21.217Z,6.06
2023-02-28T07:30:49.352Z,6.64
2023-02-28T07:33:17.342Z,7.32
2023-02-28T07:35:45.548Z,7.58
2023-02-28T07:38:14.589Z,7.15
2023-02-28T07:40:42.447Z,7.51
2023-02-28T07:43:11.655Z,8.13
2023-02-28T07:45:39.549Z,8.95
2023-02-28T07:48:07.624Z,8.89
2023-02-28T07:50:35.594Z,9.40
2023-02-28T07:53:03.718Z,10.33
2023-02-28T07:55:31.759Z,10.53
2023-02-28T07:58:00.681Z,10.90
2023-02-28T08:00:30.515Z,10.91
2023-02-28T08:02:59.082Z,10.18
2023-02-28T08:05:27.024Z,11.27
2023-02-28T08:07:55.724Z,10.60
2023-02-28T08:10:23.580Z,9.51
2023-02-28T08:12:51.693Z,9.73
2023-02-28T08:15:19.574Z,9.15
2023-02-28T08:17:48.761Z,10.06
2023-02-28T08:20:16.638Z,10.43
2023-02-28T08:22:45.992Z,10.22
2023-02-28T08:25:13.977Z,9.99
2023-02-28T08:27:42.137Z,10.46
2023-02-28T08:30:12.591Z,9.38
2023-02-28T08:32:40.837Z,8.88
2023-02-28T08:35:11.390Z,9.05
2023-02-28T08:37:39.286Z,9.64
2023-02-28T08:40:08.925Z,10.42
2023-02-28T08:42:36.794Z,10.13
2023-02-28T08:45:05.247Z,10.55
2023-02-28T08:47:34.106Z,9.87
2023-02-28T08:50:01.925Z,9.73
2023-02-28T08:52:31.143Z,9.95
2023-02-28T08:54:59.045Z,9.89
2023-02-28T08:57:28.377Z,9.64
2023-02-28T08:59:56.134Z,9.02
2023-02-28T09:02:24.004Z,8.66
2023-02-28T09:04:51.849Z,8.51
2023-02-28T09:07:19.702Z,8.95
2023-02-28T09:09:55.616Z,8.42
2023-02-28T09:12:23.971Z,8.18
2023-02-28T09:14:52.382Z,9.13
2023-02-28T09:17:20.442Z,10.67
2023-02-28T09:19:50.311Z,11.24
2023-02-28T09:22:18.264Z,10.60
2023-02-28T09:24:46.595Z,10.11
2023-02-28T09:27:15.744Z,11.43
2023-02-28T09:29:43.637Z,11.62
2023-02-28T09:32:11.500Z,10.50
2023-02-28T09:34:39.660Z,10.36
2023-02-28T09:37:07.756Z,10.74
2023-02-28T09:39:35.708Z,11.01
2023-02-28T09:42:04.607Z,10.90
2023-02-28T09:44:38.621Z,9.34
2023-02-28T09:47:14.289Z,9.22
2023-02-28T09:49:44.888Z,9.34
2023-02-28T09:52:15.751Z,9.50
2023-02-28T09:54:44.112Z,10.03
2023-02-28T09:57:29.755Z,9.89
2023-02-28T10:00:11.343Z,8.35
2023-02-28T10:03:25.605Z,6.64
2023-02-28T10:05:56.370Z,7.08
2023-02-28T10:08:28.905Z,7.31
2023-02-28T10:10:59.180Z,7.18
2023-02-28T10:13:34.130Z,7.76
2023-02-28T10:16:08.030Z,7.66
2023-02-28T10:18:44.535Z,5.67
2023-02-28T10:21:22.581Z,5.37
2023-02-28T10:23:51.631Z,6.66
2023-02-28T10:26:20.727Z,6.57
2023-02-28T10:28:48.659Z,7.77
2023-02-28T10:31:21.029Z,6.58
2023-02-28T10:33:50.102Z,6.57
2023-02-28T10:36:21.028Z,6.37
2023-02-28T10:38:50.080Z,7.46
2023-02-28T10:41:28.902Z,6.58
2023-02-28T10:44:16.306Z,6.28
2023-02-28T10:46:46.117Z,6.43
2023-02-28T10:49:21.405Z,7.28
2023-02-28T10:51:53.601Z,6.76
2023-02-28T10:54:25.350Z,6.97
2023-02-28T10:57:19.312Z,7.56
2023-02-28T10:59:48.006Z,6.13
2023-02-28T11:02:36.079Z,8.44
2023-02-28T11:05:04.834Z,8.41
2023-02-28T11:07:41.538Z,9.30
2023-02-28T11:10:22.677Z,9.27
2023-02-28T11:12:53.288Z,9.02
2023-02-28T11:15:26.977Z,9.84
2023-02-28T11:18:02.501Z,9.43
2023-02-28T11:20:32.498Z,8.55
2023-02-28T11:23:02.129Z,8.93
2023-02-28T11:25:34.108Z,10.01
2023-02-28T11:28:05.661Z,10.35
2023-02-28T11:30:38.598Z,9.41
2023-02-28T11:36:02.417Z,7.00
2023-02-28T11:38:30.590Z,8.35
2023-02-28T11:41:12.321Z,8.17
2023-02-28T11:43:55.299Z,8.90
2023-02-28T11:46:31.458Z,9.17
2023-02-28T11:49:06.068Z,8.40
2023-02-28T11:51:37.508Z,9.62
2023-02-28T11:54:29.899Z,9.78
2023-02-28T11:57:02.109Z,7.52
2023-02-28T11:59:51.017Z,8.13
2023-02-28T12:02:26.551Z,6.77
2023-02-28T12:05:09.097Z,8.96
2023-02-28T12:07:49.682Z,8.00
2023-02-28T12:10:24.720Z,6.16
2023-02-28T12:13:06.189Z,7.22
2023-02-28T12:15:49.843Z,5.95
2023-02-28T12:18:28.962Z,5.62
2023-02-28T12:21:06.604Z,6.58
2023-02-28T12:23:56.254Z,7.96
2023-02-28T12:26:32.806Z,8.00
2023-02-28T12:29:06.328Z,8.11
2023-02-28T12:31:38.545Z,6.57
2023-02-28T12:34:11.790Z,5.24
2023-02-28T12:36:41.251Z,5.43
2023-02-28T12:39:12.523Z,6.90
2023-02-28T12:41:44.268Z,7.56
2023-02-28T12:44:17.592Z,7.91
2023-02-28T12:46:50.623Z,8.11
2023-02-28T12:49:21.215Z,8.72
2023-02-28T12:51:51.091Z,8.40
2023-02-28T12:54:27.249Z,8.71
2023-02-28T12:57:04.890Z,8.48
2023-02-28T12:59:40.392Z,8.34
2023-02-28T13:02:50.945Z,8.03
2023-02-28T13:05:41.522Z,7.80
2023-02-28T13:08:30.026Z,7.52
2023-02-28T13:11:00.082Z,8.48
2023-02-28T13:13:30.770Z,6.97
2023-02-28T13:16:05.182Z,7.53
2023-02-28T13:18:37.279Z,7.01
2023-02-28T13:21:07.554Z,6.98
2023-02-28T13:23:42.328Z,6.49
2023-02-28T13:26:14.018Z,4.92
2023-02-28T13:29:29.548Z,6.16
2023-02-28T13:32:22.029Z,5.77
2023-02-28T13:35:16.005Z,5.24
2023-02-28T13:37:51.557Z,4.76
2023-02-28T13:40:37.677Z,4.51
2023-02-28T13:43:10.435Z,5.44
2023-02-28T13:45:39.587Z,5.37
2023-02-28T13:48:18.450Z,5.24
2023-02-28T13:50:47.227Z,4.97
2023-02-28T13:53:44.642Z,5.44
2023-02-28T13:56:31.742Z,4.64
2023-02-28T13:59:09.941Z,4.95
2023-02-28T14:01:52.565Z,5.61
2023-02-28T14:04:52.771Z,6.11
2023-02-28T14:07:24.425Z,5.91
2023-02-28T14:09:59.768Z,6.12
2023-02-28T14:13:00.046Z,6.12
2023-02-28T14:15:37.052Z,5.24
2023-02-28T14:18:07.462Z,4.58
2023-02-28T14:20:36.177Z,4.24
2023-02-28T14:23:11.486Z,4.59
2023-02-28T14:25:42.535Z,4.80
2023-02-28T14:28:21.086Z,4.92
2023-02-28T14:31:03.412Z,4.42
2023-02-28T14:33:45.252Z,4.65
2023-02-28T14:36:20.244Z,4.75
2023-02-28T14:38:54.131Z,4.69
2023-02-28T14:41:25.688Z,4.55
2023-02-28T14:43:56.488Z,4.58
2023-02-28T14:46:29.888Z,4.17
2023-02-28T14:48:58.218Z,4.27
2023-02-28T14:51:26.361Z,4.24
2023-02-28T14:53:59.410Z,4.31
2023-02-28T14:56:32.027Z,4.18
2023-02-28T14:59:00.108Z,4.06
2023-02-28T15:01:29.367Z,4.10
2023-02-28T15:04:02.431Z,4.13
2023-02-28T15:06:31.069Z,4.18
2023-02-28T15:09:13.339Z,4.24
2023-02-28T15:11:42.019Z,4.22
2023-02-28T15:14:17.725Z,4.24
2023-02-28T15:16:50.662Z,4.22
2023-02-28T15:19:23.869Z,4.28
2023-02-28T15:21:57.659Z,4.17
2023-02-28T15:24:33.806Z,4.21
2023-02-28T15:27:05.704Z,4.24
2023-02-28T15:29:43.300Z,4.06
2023-02-28T15:32:29.406Z,3.96
2023-02-28T15:34:58.599Z,3.98
2023-02-28T15:37:41.750Z,4.01
2023-02-28T15:40:15.859Z,4.06
2023-02-28T15:42:44.906Z,4.08
2023-02-28T15:45:30.592Z,4.11
2023-02-28T15:48:12.261Z,4.06
2023-02-28T15:50:42.106Z,4.07
2023-02-28T15:53:15.370Z,4.13
2023-02-28T15:55:43.451Z,4.08
2023-02-28T15:58:14.867Z,4.00
2023-02-28T16:00:50.362Z,3.98
2023-02-28T16:03:36.282Z,3.98
2023-02-28T16:06:45.205Z,3.90
2023-02-28T16:09:15.048Z,3.90
2023-02-28T16:11:46.865Z,3.87
2023-02-28T16:14:20.771Z,3.85
2023-02-28T16:16:52.655Z,3.82
2023-02-28T16:19:22.134Z,3.77
2023-02-28T16:21:50.214Z,3.75
2023-02-28T16:24:18.060Z,3.69
2023-02-28T16:26:49.216Z,3.67
2023-02-28T16:29:25.102Z,3.66
2023-02-28T16:31:54.344Z,3.62
2023-02-28T16:34:23.842Z,3.63
2023-02-28T16:36:52.856Z,3.62
2023-02-28T16:39:21.676Z,3.53
2023-02-28T16:41:51.059Z,3.53
2023-02-28T16:44:24.669Z,3.56
2023-02-28T16:46:52.546Z,3.51
2023-02-28T16:49:20.455Z,3.45
2023-02-28T16:51:49.690Z,3.40
2023-02-28T16:54:17.602Z,3.43
2023-02-28T16:56:48.120Z,3.35
2023-02-28T16:59:19.985Z,3.29
2023-02-28T17:01:47.888Z,3.21
2023-02-28T17:04:16.705Z,3.14
2023-02-28T17:06:44.740Z,4.31
2023-02-28T17:09:18.667Z,4.82
2023-02-28T17:11:47.151Z,3.79
2023-02-28T17:14:15.507Z,3.40
2023-02-28T17:16:44.576Z,3.12
2023-02-28T17:19:15.648Z,2.90
2023-02-28T17:21:43.926Z,2.71
2023-02-28T17:24:28.946Z,2.60
2023-02-28T17:27:00.171Z,2.57
2023-02-28T17:29:28.524Z,2.49
2023-02-28T17:31:58.860Z,2.42
2023-02-28T17:34:28.648Z,2.44
2023-02-28T17:36:56.541Z,2.40
2023-02-28T17:39:25.839Z,2.23
2023-02-28T17:41:53.792Z,2.12
2023-02-28T17:44:24.706Z,2.13
2023-02-28T17:46:53.363Z,2.13
2023-02-28T17:49:21.665Z,2.09
2023-02-28T17:51:51.421Z,1.92
2023-02-28T17:54:19.416Z,1.98
2023-02-28T17:56:47.642Z,1.97
2023-02-28T17:59:15.665Z,1.94
2023-02-28T18:01:44.986Z,1.94
2023-02-28T18:04:12.675Z,1.86
2023-02-28T18:06:48.569Z,1.89
2023-02-28T18:09:17.790Z,1.91
2023-02-28T18:11:48.999Z,1.85
2023-02-28T18:14:17.371Z,1.86
2023-02-28T18:16:46.977Z,1.78
2023-02-28T18:19:17.322Z,1.71
2023-02-28T18:21:46.724Z,1.68
2023-02-28T18:24:14.618Z,1.67
2023-02-28T18:26:43.388Z,1.65
2023-02-28T18:29:18.684Z,1.61
2023-02-28T18:31:48.090Z,1.57
2023-02-28T18:34:16.218Z,1.52
2023-02-28T18:36:46.999Z,1.55
2023-02-28T18:39:15.306Z,1.48
2023-02-28T18:41:43.362Z,1.48
2023-02-28T18:44:20.115Z,1.37
2023-02-28T18:46:50.070Z,1.27
2023-02-28T18:49:18.244Z,1.23
2023-02-28T18:51:46.786Z,1.23
2023-02-28T18:54:16.710Z,1.22
2023-02-28T18:56:45.003Z,1.23
2023-02-28T18:59:13.264Z,1.12
2023-02-28T19:01:41.250Z,1.10
2023-02-28T19:04:13.839Z,1.03
2023-02-28T19:06:42.248Z,1.01
2023-02-28T19:09:10.379Z,1.00
2023-02-28T19:11:38.401Z,1.03
2023-02-28T19:14:06.367Z,0.92
2023-02-28T19:16:34.479Z,0.89
2023-02-28T19:19:02.518Z,1.12
2023-02-28T19:21:31.817Z,1.10
2023-02-28T19:23:59.723Z,1.15
2023-02-28T19:26:28.200Z,1.30
2023-02-28T19:28:56.456Z,1.36
2023-02-28T19:31:26.426Z,1.20
2023-02-28T19:33:55.893Z,1.17
2023-02-28T19:36:25.236Z,1.07
2023-02-28T19:38:54.758Z,1.10
2023-02-28T19:41:22.984Z,1.06
2023-02-28T19:43:51.697Z,1.00
2023-02-28T19:46:20.266Z,0.99
2023-02-28T19:48:48.803Z,0.96
2023-02-28T19:53:50.607Z,0.99
2023-02-28T19:56:19.932Z,0.88
2023-02-28T19:58:47.941Z,0.72
2023-02-28T20:01:18.088Z,0.73
2023-02-28T20:03:49.188Z,0.68
2023-02-28T20:06:17.386Z,0.64
2023-02-28T20:08:45.411Z,0.58
2023-02-28T20:11:15.677Z,0.62
2023-02-28T20:13:46.065Z,0.55
2023-02-28T20:16:15.704Z,0.51
2023-02-28T20:18:46.161Z,0.45
2023-02-28T20:21:14.903Z,0.47
2023-02-28T20:23:43.337Z,0.37
2023-02-28T20:26:11.447Z,0.35
2023-02-28T20:28:40.459Z,0.40
2023-02-28T20:31:14.496Z,0.40
2023-02-28T20:33:45.584Z,0.40
2023-02-28T20:36:15.833Z,0.38
2023-02-28T20:38:44.479Z,0.18
2023-02-28T20:41:12.954Z,0.06
2023-02-28T20:43:41.450Z,-0.06
2023-02-28T20:46:10.061Z,-0.13
2023-02-28T20:48:39.942Z,-0.18
2023-02-28T20:51:08.193Z,-0.24
2023-02-28T20:53:36.874Z,-0.28
2023-02-28T20:56:07.255Z,-0.18
2023-02-28T20:58:38.052Z,0.06
2023-02-28T21:01:16.124Z,-0.03
2023-02-28T21:03:47.122Z,0.00
2023-02-28T21:06:16.359Z,0.10
2023-02-28T21:08:44.323Z,0.06
2023-02-28T21:11:13.901Z,0.17
2023-02-28T21:13:43.196Z,0.13
2023-02-28T21:16:12.221Z,0.07
2023-02-28T21:18:40.684Z,-0.06
2023-02-28T21:21:12.541Z,-0.30
2023-02-28T21:23:40.685Z,-0.44
2023-02-28T21:26:10.331Z,-0.40
2023-02-28T21:28:44.056Z,-0.55
2023-02-28T21:31:14.376Z,-0.65
2023-02-28T21:33:42.678Z,-0.66
2023-02-28T21:36:14.159Z,-0.71
2023-02-28T21:38:43.100Z,-0.85
2023-02-28T21:41:12.949Z,-0.81
2023-02-28T21:43:42.026Z,-0.91
2023-02-28T21:46:12.509Z,-0.81
2023-02-28T21:48:41.146Z,-0.74
2023-02-28T21:51:13.320Z,-0.75
2023-02-28T21:53:42.478Z,-0.79
2023-02-28T21:56:14.389Z,-0.68
2023-02-28T21:58:42.703Z,-0.78
2023-02-28T22:01:12.906Z,-0.81
2023-02-28T22:03:41.080Z,-0.96
2023-02-28T22:06:15.275Z,-1.20
2023-02-28T22:08:44.616Z,-1.30
2023-02-28T22:11:13.046Z,-1.13
2023-02-28T22:13:41.443Z,-1.02
2023-02-28T22:16:11.830Z,-1.16
2023-02-28T22:18:40.796Z,-1.16
2023-02-28T22:21:09.423Z,-1.30
2023-02-28T22:23:39.659Z,-1.40
2023-02-28T22:26:10.464Z,-1.46
2023-02-28T22:28:38.808Z,-1.64
2023-02-28T22:31:14.858Z,-1.61
2023-02-28T22:33:43.086Z,-1.57
2023-02-28T22:36:12.959Z,-1.58
2023-02-28T22:38:42.521Z,-1.72
2023-02-28T22:41:11.807Z,-1.67
2023-02-28T22:43:39.781Z,-1.66
2023-02-28T22:46:09.883Z,-1.53
2023-02-28T22:48:38.456Z,-1.35
2023-02-28T22:51:09.365Z,-1.27
2023-02-28T22:53:38.157Z,-1.19
2023-02-28T22:56:08.953Z,-1.32
2023-02-28T22:58:37.026Z,-1.26
2023-02-28T23:01:08.946Z,-1.39
2023-02-28T23:03:37.150Z,-1.63
2023-02-28T23:06:14.716Z,-1.84
2023-02-28T23:08:43.492Z,-1.99
2023-02-28T23:11:19.744Z,-2.05
2023-02-28T23:13:58.363Z,-2.03
2023-02-28T23:16:29.342Z,-1.94
2023-02-28T23:18:59.344Z,-1.98
2023-02-28T23:21:28.348Z,-1.66
2023-02-28T23:23:56.486Z,-1.87
2023-02-28T23:26:26.149Z,-1.91
2023-02-28T23:28:54.204Z,-2.06
2023-02-28T23:31:22.255Z,-2.16
2023-02-28T23:33:50.136Z,-2.32
2023-02-28T23:36:18.485Z,-2.18
2023-02-28T23:38:48.968Z,-2.15
2023-02-28T23:41:18.042Z,-2.30
2023-02-28T23:43:47.766Z,-2.42
2023-02-28T23:46:17.101Z,-2.53
2023-02-28T23:48:45.063Z,-2.61
2023-02-28T23:51:16.714Z,-2.69
2023-02-28T23:53:46.051Z,-2.23
2023-02-28T23:56:15.067Z,-1.89
2023-02-28T23:58:43.716Z,-1.63
